Nesenie raksti

Ziņas

Par Gliding.lv

Gliding.lv ir interneta vietne par planieriem un planierismu. Šeit būs atrodama informācija par iespējām pamēģināt, iesaistīties un organizēt planierisma aktivitātes. Izmanto Gliding.lv forumu, ja Tev ir kāda tēma diskusijai vai jautājums. Gliding.lv merķis ir informēt un apvienot planierisma interesentus, nodrošinot un apmainoties ar aktuālāko un arī bijušo. Lidojam!

Laiks Rīgā
2°
few clouds
mitrums: 69%
vējš: 6m/s ZZA
Aug 3 • Zem 3
5°
Pir
1°
Otr
6°
Tre
8°
Cet
Meteo-dati no OpenWeatherMap

METAR

EVRA 290720Z 03012KT 9999 FEW048 02/M03 Q1018 R36/290195 NOSIG

EVLA 290750Z AUTO 02013KT 9999 FEW056/// BKN063/// OVC072/// 03/M04 Q1020

EVVA 290750Z AUTO 02020KT CAVOK 02/M08 Q1022

Nesenie raksti

Pāriet uz rīkjoslu